Open Full Screen Window  High Contrast Mode
August 23, 2014 5:27 AM EDT
Weather Information
Wind Direction
  ---
Wind Speed
  00 kt (0 mph)
Wind Gust
  00 kt (0 mph)
Altimeter
29.98 in
Visibility
7 SM
Temperature
22° C
72° F
Dewpoint
22° C
72° F
Humidity
100%
1hr Rain Fall
00.00 in.
24hr Rain Fall
00.00 in.
Sky Condition
Clear
VFR

METAR KI69 230927Z AUTO 00000KT 7SM CLR 22/22 A2998 RMK AO1

*Background is not an actual portrayal of the airport.